Time;durP1;ratioP1;P1;durP2;ratioP2;P2;SDS_P1;SDS_P2;PMS_P1;PMS_P2;Temp;Humidity;BMP_temperature;BMP_pressure;BME280_temperature;BME280_humidity;BME280_pressure;Samples;Min_cycle;Max_cycle;Signal;HPM_P1;HPM_P2
2022/05/03 00:01:08;;;;;;;19.27;13.55;;;12.30;99.90;;;;;;5054142;28;19911;-68
2022/05/03 00:03:43;;;;;;;23.92;14.15;;;12.20;99.90;;;;;;5054115;28;20028;-68
2022/05/03 00:06:29;;;;;;;21.30;14.00;;;12.20;99.90;;;;;;5054341;28;20484;-67
2022/05/03 00:09:05;;;;;;;24.08;14.48;;;12.20;99.90;;;;;;5053975;28;20033;-70
2022/05/03 00:11:32;;;;;;;22.70;14.60;;;12.20;99.90;;;;;;5054226;28;20025;-69
2022/05/03 00:14:22;;;;;;;21.17;14.65;;;12.10;99.90;;;;;;5053887;28;20100;-67
2022/05/03 00:16:50;;;;;;;20.85;13.45;;;12.10;99.90;;;;;;5053845;28;20043;-69
2022/05/03 00:19:16;;;;;;;21.70;13.02;;;12.00;99.90;;;;;;5053835;28;20048;-67
2022/05/03 00:21:43;;;;;;;19.60;12.25;;;12.10;99.90;;;;;;5054358;28;20025;-69
2022/05/03 00:24:08;;;;;;;19.15;12.90;;;12.10;99.90;;;;;;5053552;28;20409;-72
2022/05/03 00:26:35;;;;;;;21.95;13.68;;;12.00;99.90;;;;;;5053651;28;20021;-67
2022/05/03 00:29:01;;;;;;;22.08;13.57;;;12.00;99.90;;;;;;5053552;28;20049;-72
2022/05/03 00:31:28;;;;;;;20.98;13.18;;;12.00;99.90;;;;;;5054123;28;20060;-69
2022/05/03 00:33:55;;;;;;;19.48;12.40;;;12.00;99.90;;;;;;5053558;28;20028;-70
2022/05/03 00:36:22;;;;;;;20.33;13.00;;;12.00;99.90;;;;;;5053584;28;20056;-67
2022/05/03 00:38:49;;;;;;;20.08;13.48;;;12.00;99.90;;;;;;5053767;28;20074;-68
2022/05/03 00:41:20;;;;;;;20.52;12.82;;;12.00;99.90;;;;;;5053715;28;20029;-68
2022/05/03 00:44:55;;;;;;;19.45;12.45;;;12.00;99.90;;;;;;5053682;28;20029;-68
2022/05/03 00:46:50;;;;;;;24.10;12.65;;;12.00;99.90;;;;;;5053045;28;20028;-68
2022/05/03 00:49:18;;;;;;;17.35;12.43;;;11.90;99.90;;;;;;5053578;28;20496;-68
2022/05/03 00:51:54;;;;;;;22.58;13.02;;;11.90;99.90;;;;;;5053564;28;20078;-68
2022/05/03 00:54:58;;;;;;;20.60;12.68;;;12.00;99.90;;;;;;5053616;28;20032;-68
2022/05/03 00:57:36;;;;;;;21.73;12.18;;;12.00;99.90;;;;;;5015334;28;20044;-67
2022/05/03 01:00:11;;;;;;;19.60;12.50;;;12.00;99.90;;;;;;5053207;28;20025;-67
2022/05/03 01:02:55;;;;;;;18.45;11.95;;;12.00;99.90;;;;;;5053680;28;20071;-70
2022/05/03 01:05:27;;;;;;;17.92;12.82;;;12.00;99.90;;;;;;5053113;28;20104;-70
2022/05/03 01:08:04;;;;;;;19.70;12.88;;;12.00;99.90;;;;;;5053618;28;20031;-72
2022/05/03 01:10:42;;;;;;;20.65;12.88;;;12.00;99.90;;;;;;5053138;28;20496;-69
2022/05/03 01:13:34;;;;;;;19.60;12.35;;;12.00;99.90;;;;;;5034946;28;20396;-70
2022/05/03 01:16:11;;;;;;;21.55;12.85;;;12.00;99.90;;;;;;5053148;28;20381;-70
2022/05/03 01:18:42;;;;;;;18.80;11.98;;;11.90;99.90;;;;;;5053608;28;20099;-69
2022/05/03 01:21:17;;;;;;;19.77;12.48;;;11.90;99.90;;;;;;5053343;28;20025;-70
2022/05/03 01:24:04;;;;;;;20.10;12.82;;;11.90;99.90;;;;;;5054951;28;20072;-67
2022/05/03 01:26:41;;;;;;;22.17;13.55;;;11.90;99.90;;;;;;5039108;28;20413;-72
2022/05/03 01:29:28;;;;;;;22.27;13.48;;;12.00;99.90;;;;;;5056943;28;20036;-69
2022/05/03 01:32:05;;;;;;;22.77;13.38;;;12.00;99.90;;;;;;5056983;28;20064;-66
2022/05/03 01:34:32;;;;;;;18.02;12.70;;;11.90;99.90;;;;;;5057278;28;20100;-69
2022/05/03 01:37:13;;;;;;;20.83;12.55;;;11.90;99.90;;;;;;5056955;28;20017;-70
2022/05/03 01:39:41;;;;;;;;;;;11.90;99.90;;;;;;5057888;28;20048;-68
2022/05/03 01:42:24;;;;;;;19.08;12.85;;;11.80;99.90;;;;;;5057081;28;19912;-68
2022/05/03 01:44:57;;;;;;;21.67;12.40;;;11.90;99.90;;;;;;5057344;28;20028;-70
2022/05/03 01:47:22;;;;;;;20.20;13.00;;;11.90;99.90;;;;;;5056841;28;20025;-66
2022/05/03 01:50:20;;;;;;;20.58;12.82;;;11.90;99.90;;;;;;5056642;28;20021;-67
2022/05/03 01:53:05;;;;;;;18.00;12.43;;;11.80;99.90;;;;;;5057131;28;20021;-68
2022/05/03 01:56:08;;;;;;;17.20;12.60;;;11.80;99.90;;;;;;5056852;28;20066;-69
2022/05/03 02:01:55;;;;;;;19.63;12.40;;;11.90;99.90;;;;;;5056506;28;20098;-68
2022/05/03 02:04:48;;;;;;;19.40;12.38;;;11.80;99.90;;;;;;5057217;28;20040;-69
2022/05/03 02:07:24;;;;;;;22.83;12.18;;;11.80;99.90;;;;;;5056553;28;20231;-68
2022/05/03 02:10:15;;;;;;;19.98;12.60;;;11.80;99.90;;;;;;5056582;28;20091;-68
2022/05/03 02:12:45;;;;;;;19.40;11.23;;;11.80;99.90;;;;;;5056789;28;20052;-71
2022/05/03 02:15:16;;;;;;;18.80;12.10;;;11.80;99.90;;;;;;5056129;28;20025;-71
2022/05/03 02:17:59;;;;;;;16.77;11.93;;;11.80;99.90;;;;;;5056408;28;20021;-67
2022/05/03 02:20:39;;;;;;;20.63;12.32;;;11.70;99.90;;;;;;5056358;28;20039;-67
2022/05/03 02:23:15;;;;;;;18.50;13.07;;;11.70;99.90;;;;;;5056155;28;20587;-70
2022/05/03 02:26:08;;;;;;;19.17;12.20;;;11.70;99.90;;;;;;5056016;28;20055;-70
2022/05/03 02:28:42;;;;;;;19.02;12.07;;;11.70;99.90;;;;;;5056119;28;20492;-69
2022/05/03 02:31:13;;;;;;;18.58;11.60;;;11.80;99.90;;;;;;5056431;28;20478;-69
2022/05/03 02:33:49;;;;;;;18.85;12.82;;;11.80;99.90;;;;;;5055932;28;20052;-69
2022/05/03 02:36:17;;;;;;;19.23;12.13;;;11.70;99.90;;;;;;5056036;28;20025;-71
2022/05/03 02:39:05;;;;;;;18.83;11.93;;;11.70;99.90;;;;;;5056022;28;20029;-67
2022/05/03 02:41:46;;;;;;;23.58;12.18;;;11.80;99.90;;;;;;5055379;28;20029;-68
2022/05/03 02:44:12;;;;;;;;;;;11.70;99.90;;;;;;5056382;28;20025;-70
2022/05/03 02:46:42;;;;;;;18.70;11.88;;;11.70;99.90;;;;;;5055579;28;19928;-70
2022/05/03 02:49:18;;;;;;;16.90;11.23;;;11.70;99.90;;;;;;5055467;28;20025;-70
2022/05/03 02:52:02;;;;;;;18.80;12.77;;;11.70;99.90;;;;;;5056081;28;20021;-68
2022/05/03 02:54:43;;;;;;;19.65;12.00;;;11.70;99.90;;;;;;5055968;28;20025;-71
2022/05/03 02:57:28;;;;;;;20.27;12.82;;;11.70;99.90;;;;;;5055393;28;20497;-67
2022/05/03 03:03:04;;;;;;;22.40;13.38;;;11.80;99.90;;;;;;5055877;28;20040;-69
2022/05/03 03:05:30;;;;;;;;;;;11.70;99.90;;;;;;5055936;28;20029;-69
2022/05/03 03:08:01;;;;;;;19.83;12.55;;;11.70;99.90;;;;;;5055063;28;19912;-70
2022/05/03 03:10:50;;;;;;;20.98;12.43;;;11.70;99.90;;;;;;5055726;28;20410;-69
2022/05/03 03:13:50;;;;;;;21.08;12.52;;;11.70;99.90;;;;;;5055686;28;20096;-68
2022/05/03 03:16:25;;;;;;;23.23;12.77;;;11.70;99.90;;;;;;5054955;28;20025;-69
2022/05/03 03:18:52;;;;;;;21.80;13.13;;;11.60;99.90;;;;;;5055017;28;20397;-69
2022/05/03 03:21:24;;;;;;;24.23;13.98;;;11.60;99.90;;;;;;5054879;28;20025;-70
2022/05/03 03:23:52;;;;;;;24.77;13.15;;;11.60;99.90;;;;;;5054930;28;20044;-67
2022/05/03 03:26:20;;;;;;;25.35;12.75;;;11.60;99.90;;;;;;5054815;28;20025;-68
2022/05/03 03:28:48;;;;;;;20.85;13.13;;;11.60;99.90;;;;;;5054764;28;20033;-71
2022/05/03 03:31:15;;;;;;;21.08;12.98;;;11.60;99.90;;;;;;5054755;28;20059;-67
2022/05/03 03:33:41;;;;;;;25.33;13.02;;;11.50;99.90;;;;;;5054692;28;20017;-68
2022/05/03 03:36:10;;;;;;;24.88;14.10;;;11.50;99.90;;;;;;5054646;28;20030;-69
2022/05/03 03:38:40;;;;;;;24.25;14.35;;;11.50;99.90;;;;;;5055132;28;20025;-70
2022/05/03 03:41:06;;;;;;;21.38;14.02;;;11.40;99.90;;;;;;5054523;28;20025;-70
2022/05/03 03:43:32;;;;;;;22.33;13.63;;;11.50;99.90;;;;;;5054463;28;20044;-69
2022/05/03 03:45:58;;;;;;;23.45;13.27;;;11.40;99.90;;;;;;5053814;28;20021;-68
2022/05/03 03:48:24;;;;;;;23.17;13.23;;;11.30;99.90;;;;;;5054603;28;20032;-70
2022/05/03 03:50:51;;;;;;;22.58;13.35;;;11.30;99.90;;;;;;5036484;28;20025;-68
2022/05/03 03:53:17;;;;;;;21.42;13.75;;;11.40;99.90;;;;;;5054581;28;20057;-68
2022/05/03 03:55:44;;;;;;;25.65;15.27;;;11.40;99.90;;;;;;5054250;28;20024;-70
2022/05/03 03:58:11;;;;;;;26.60;14.88;;;11.40;99.90;;;;;;5054185;28;20104;-70
2022/05/03 04:00:37;;;;;;;23.05;13.88;;;11.50;99.90;;;;;;5054146;28;20028;-70
2022/05/03 04:03:04;;;;;;;22.63;14.98;;;11.40;99.90;;;;;;5036063;28;20226;-69
2022/05/03 04:05:32;;;;;;;23.33;15.45;;;11.40;99.90;;;;;;5054131;28;20023;-67
2022/05/03 04:07:57;;;;;;;23.83;15.27;;;11.40;99.90;;;;;;5053944;28;20091;-69
2022/05/03 04:10:23;;;;;;;28.20;15.93;;;11.40;99.90;;;;;;5054268;28;20028;-68
2022/05/03 04:12:49;;;;;;;21.20;14.50;;;11.40;99.90;;;;;;5035852;28;20025;-66
2022/05/03 04:15:15;;;;;;;25.27;15.20;;;11.40;99.90;;;;;;5054122;28;20113;-70
2022/05/03 04:17:41;;;;;;;21.80;15.35;;;11.40;99.90;;;;;;5053814;28;20425;-66
2022/05/03 04:20:06;;;;;;;21.90;15.30;;;11.30;99.90;;;;;;5053809;28;20032;-66
2022/05/03 04:22:34;;;;;;;23.90;14.88;;;11.30;99.90;;;;;;5053761;28;20135;-68
2022/05/03 04:25:01;;;;;;;26.95;16.27;;;11.30;99.90;;;;;;5053315;28;20044;-68
2022/05/03 04:27:27;;;;;;;26.15;16.13;;;11.30;99.90;;;;;;5053913;28;20037;-65
2022/05/03 04:29:54;;;;;;;25.85;16.23;;;11.30;99.90;;;;;;5053678;28;20009;-66
2022/05/03 04:32:20;;;;;;;28.52;16.02;;;11.30;99.90;;;;;;5053588;28;20028;-67
2022/05/03 04:34:46;;;;;;;27.30;15.43;;;11.20;99.90;;;;;;5053565;28;20385;-71
2022/05/03 04:37:12;;;;;;;25.75;16.10;;;11.20;99.90;;;;;;5053499;28;20036;-68
2022/05/03 04:39:38;;;;;;;23.63;15.60;;;11.20;99.90;;;;;;5053727;28;20075;-68
2022/05/03 04:42:04;;;;;;;25.52;15.95;;;11.10;99.90;;;;;;5035518;28;20033;-67
2022/05/03 04:44:30;;;;;;;26.38;16.83;;;11.10;99.90;;;;;;5053412;28;20025;-68
2022/05/03 04:46:56;;;;;;;27.67;17.50;;;11.00;99.90;;;;;;5053279;28;20086;-69
2022/05/03 04:49:21;;;;;;;25.05;16.17;;;11.10;99.90;;;;;;5053334;28;20025;-70
2022/05/03 04:51:47;;;;;;;26.52;16.83;;;11.00;99.90;;;;;;5053560;28;20059;-69
2022/05/03 04:54:13;;;;;;;25.27;17.17;;;10.90;99.90;;;;;;5053323;28;20025;-68
2022/05/03 04:56:47;;;;;;;26.10;17.35;;;11.00;99.90;;;;;;5053776;28;20032;-66
2022/05/03 04:59:12;;;;;;;28.77;17.25;;;11.00;99.90;;;;;;5052798;28;20025;-67
2022/05/03 05:01:38;;;;;;;26.83;17.42;;;11.00;99.90;;;;;;5053469;28;20060;-68
2022/05/03 05:04:04;;;;;;;23.27;15.93;;;11.00;99.90;;;;;;5053403;28;20397;-67
2022/05/03 05:06:29;;;;;;;27.15;17.65;;;11.00;99.90;;;;;;5053416;28;20072;-71
2022/05/03 05:08:55;;;;;;;26.13;17.33;;;11.10;99.90;;;;;;5053297;28;20029;-69
2022/05/03 05:11:20;;;;;;;28.60;17.83;;;11.10;99.90;;;;;;5053424;28;20021;-68
2022/05/03 05:13:46;;;;;;;28.55;17.98;;;11.10;99.90;;;;;;5053372;28;20436;-68
2022/05/03 05:16:12;;;;;;;24.23;16.38;;;11.20;99.90;;;;;;5053306;28;20025;-68
2022/05/03 05:18:38;;;;;;;31.25;17.40;;;11.20;99.90;;;;;;5052976;28;20493;-72
2022/05/03 05:21:04;;;;;;;28.63;17.67;;;11.30;99.90;;;;;;5053022;28;20025;-69
2022/05/03 05:23:30;;;;;;;26.98;17.90;;;11.30;99.90;;;;;;5052803;28;20382;-68
2022/05/03 05:25:55;;;;;;;26.05;16.88;;;11.40;99.90;;;;;;5053250;28;20033;-69
2022/05/03 05:28:22;;;;;;;28.27;17.73;;;11.50;99.90;;;;;;5053178;28;20063;-69
2022/05/03 05:30:51;;;;;;;27.95;17.92;;;11.60;99.90;;;;;;5052904;28;20470;-71
2022/05/03 05:33:18;;;;;;;25.70;17.37;;;11.60;99.90;;;;;;5053223;28;20031;-70
2022/05/03 05:35:44;;;;;;;29.00;17.90;;;11.60;99.90;;;;;;5052855;28;20069;-67
2022/05/03 05:38:13;;;;;;;26.45;16.83;;;11.70;99.90;;;;;;5053173;28;20025;-70
2022/05/03 05:40:39;;;;;;;30.17;17.08;;;11.80;99.90;;;;;;5052834;28;20477;-71
2022/05/03 05:43:05;;;;;;;25.10;16.83;;;12.00;99.90;;;;;;5052691;28;20039;-69
2022/05/03 05:45:30;;;;;;;27.55;17.42;;;12.00;99.90;;;;;;5052693;28;20397;-72
2022/05/03 05:47:57;;;;;;;27.85;17.77;;;12.00;99.90;;;;;;5052942;28;20405;-69
2022/05/03 05:50:23;;;;;;;24.90;17.20;;;12.20;99.90;;;;;;5052749;28;20515;-67
2022/05/03 05:55:33;;;;;;;24.80;16.48;;;12.40;99.90;;;;;;5053281;28;20043;-68
2022/05/03 05:57:58;;;;;;;27.05;18.38;;;12.40;99.90;;;;;;5052638;28;20470;-69
2022/05/03 06:00:24;;;;;;;26.73;18.52;;;12.50;99.90;;;;;;5052644;28;20422;-72
2022/05/03 06:02:50;;;;;;;25.67;17.67;;;12.50;99.90;;;;;;5034703;28;20448;-68
2022/05/03 06:05:16;;;;;;;24.80;17.02;;;12.60;99.90;;;;;;5052553;28;20052;-68
2022/05/03 06:07:41;;;;;;;27.15;18.70;;;12.70;99.90;;;;;;5052507;28;20473;-68
2022/05/03 06:10:08;;;;;;;28.60;18.08;;;12.70;99.90;;;;;;5054901;28;20021;-69
2022/05/03 06:12:33;;;;;;;26.67;17.75;;;12.80;99.90;;;;;;5056204;28;20075;-67
2022/05/03 06:14:59;;;;;;;25.92;17.30;;;12.90;99.90;;;;;;5056142;28;20424;-69
2022/05/03 06:17:25;;;;;;;26.90;17.75;;;13.10;99.90;;;;;;5056178;28;20435;-68
2022/05/03 06:19:50;;;;;;;27.80;17.95;;;13.30;99.90;;;;;;5056087;28;20025;-71
2022/05/03 06:22:16;;;;;;;27.50;17.83;;;13.30;99.90;;;;;;5056036;28;20052;-68
2022/05/03 06:24:45;;;;;;;30.27;18.33;;;13.50;99.90;;;;;;5055821;28;20431;-69
2022/05/03 06:27:11;;;;;;;27.05;18.52;;;13.60;99.90;;;;;;5055913;28;20025;-69
2022/05/03 06:29:37;;;;;;;26.00;18.58;;;13.60;99.90;;;;;;5055907;28;20048;-70
2022/05/03 06:32:03;;;;;;;25.73;17.35;;;13.60;99.90;;;;;;5055910;28;20028;-68
2022/05/03 06:34:28;;;;;;;29.33;18.98;;;13.70;99.90;;;;;;5037904;28;20032;-70
2022/05/03 06:36:54;;;;;;;25.50;16.88;;;13.90;99.90;;;;;;5056061;28;20420;-68
2022/05/03 06:39:20;;;;;;;26.42;17.33;;;13.90;99.90;;;;;;5056026;28;20025;-70
2022/05/03 06:41:45;;;;;;;27.13;18.08;;;13.90;99.90;;;;;;5055939;28;20032;-68
2022/05/03 06:44:13;;;;;;;29.38;18.45;;;14.00;99.90;;;;;;5055627;28;20033;-70
2022/05/03 06:46:38;;;;;;;28.10;18.17;;;14.00;99.90;;;;;;5055610;28;20469;-71
2022/05/03 06:49:04;;;;;;;24.77;17.35;;;14.00;99.90;;;;;;5055487;28;20074;-70
2022/05/03 06:51:30;;;;;;;29.27;18.90;;;14.10;99.90;;;;;;5055455;28;20017;-68
2022/05/03 06:53:56;;;;;;;28.88;18.92;;;14.10;99.90;;;;;;5055404;28;20147;-67
2022/05/03 06:56:21;;;;;;;28.40;18.52;;;14.20;99.90;;;;;;5055398;28;20393;-68
2022/05/03 06:58:47;;;;;;;25.65;17.70;;;14.20;99.90;;;;;;5055356;28;20021;-70
2022/05/03 07:01:14;;;;;;;27.02;17.88;;;14.30;99.90;;;;;;5055594;28;20034;-66
2022/05/03 07:03:41;;;;;;;27.23;18.60;;;14.40;99.90;;;;;;5055293;28;20028;-69
2022/05/03 07:06:07;;;;;;;29.02;18.13;;;14.40;99.90;;;;;;5055761;28;20021;-70
2022/05/03 07:08:34;;;;;;;26.35;17.77;;;14.40;99.90;;;;;;5055091;28;20025;-70
2022/05/03 07:11:00;;;;;;;24.92;16.95;;;14.50;99.90;;;;;;5055156;28;20021;-69
2022/05/03 07:13:26;;;;;;;27.85;17.90;;;14.60;99.90;;;;;;5055381;28;20024;-68
2022/05/03 07:15:56;;;;;;;27.63;18.17;;;14.80;99.90;;;;;;5055019;28;20027;-66
2022/05/03 07:23:51;;;;;;;25.85;17.33;;;14.80;99.90;;;;;;5054919;28;20048;-68
2022/05/03 07:26:18;;;;;;;26.58;17.23;;;14.90;99.90;;;;;;5055091;28;20033;-68
2022/05/03 07:28:47;;;;;;;29.70;18.42;;;15.00;99.90;;;;;;5054612;28;20044;-68
2022/05/03 07:31:13;;;;;;;26.65;17.80;;;15.10;99.90;;;;;;5054697;28;20017;-70
2022/05/03 07:33:39;;;;;;;25.88;17.88;;;15.20;99.90;;;;;;5054692;28;20075;-70
2022/05/03 07:36:05;;;;;;;24.40;17.13;;;15.20;99.90;;;;;;5052573;28;20033;-71
2022/05/03 07:38:31;;;;;;;24.00;17.50;;;15.30;99.90;;;;;;5054342;28;20071;-70
2022/05/03 07:40:56;;;;;;;24.55;17.23;;;15.50;99.90;;;;;;5054185;28;20401;-70
2022/05/03 07:43:23;;;;;;;24.90;17.73;;;15.60;99.90;;;;;;5053519;28;20067;-71
2022/05/03 07:45:49;;;;;;;25.40;17.67;;;15.80;99.90;;;;;;5053578;28;20021;-67
2022/05/03 07:48:14;;;;;;;23.55;17.38;;;15.80;99.90;;;;;;5053365;28;20397;-72
2022/05/03 07:50:40;;;;;;;26.50;17.88;;;15.80;99.90;;;;;;5054702;28;20029;-69
2022/05/03 07:53:06;;;;;;;25.65;17.73;;;15.90;99.90;;;;;;5054312;28;20486;-71
2022/05/03 07:55:32;;;;;;;25.23;17.85;;;16.10;99.90;;;;;;5051933;28;20025;-71
2022/05/03 07:57:57;;;;;;;23.85;17.10;;;16.00;99.90;;;;;;5054986;28;20398;-75
2022/05/03 08:00:23;;;;;;;25.75;17.33;;;16.10;99.90;;;;;;5055172;28;20040;-72
2022/05/03 08:02:48;;;;;;;26.38;17.60;;;16.20;99.90;;;;;;5054796;28;20025;-72
2022/05/03 08:05:14;;;;;;;27.23;17.30;;;16.30;99.90;;;;;;5054292;28;20028;-71
2022/05/03 08:07:40;;;;;;;23.77;17.00;;;16.40;99.90;;;;;;5054295;28;20079;-70
2022/05/03 08:10:06;;;;;;;25.35;16.63;;;16.30;99.90;;;;;;5054323;28;20032;-71
2022/05/03 08:12:32;;;;;;;26.08;16.85;;;16.20;99.90;;;;;;5054012;28;20021;-74
2022/05/03 08:14:57;;;;;;;23.65;16.17;;;16.10;99.90;;;;;;5052007;28;20388;-70
2022/05/03 08:17:27;;;;;;;25.90;16.75;;;16.10;99.90;;;;;;5036391;28;20557;-74
2022/05/03 08:19:53;;;;;;;25.27;16.15;;;16.10;99.90;;;;;;5054128;28;20029;-72
2022/05/03 08:22:19;;;;;;;27.40;17.67;;;16.10;99.90;;;;;;5054317;28;20108;-70
2022/05/03 08:24:44;;;;;;;25.35;17.13;;;16.00;99.90;;;;;;5053645;28;20075;-70
2022/05/03 08:27:10;;;;;;;23.50;16.27;;;16.00;99.90;;;;;;5053833;28;20021;-73
2022/05/03 08:29:36;;;;;;;26.48;16.58;;;15.80;99.90;;;;;;5052498;28;20405;-75
2022/05/03 08:32:02;;;;;;;21.48;15.82;;;15.70;99.90;;;;;;5053735;28;20017;-71
2022/05/03 08:34:28;;;;;;;21.75;15.75;;;15.80;99.90;;;;;;5053755;28;20488;-68
2022/05/03 08:42:23;;;;;;;23.10;16.63;;;16.00;99.90;;;;;;5051439;28;20178;-71
2022/05/03 08:44:49;;;;;;;26.42;16.75;;;16.00;99.90;;;;;;5051631;28;20033;-70
2022/05/03 08:47:18;;;;;;;22.63;15.05;;;15.90;99.90;;;;;;5053573;28;20021;-72
2022/05/03 08:50:10;;;;;;;22.95;16.13;;;16.00;99.90;;;;;;5035472;28;20409;-71
2022/05/03 08:52:59;;;;;;;23.85;16.02;;;15.90;99.90;;;;;;5045489;28;20219;-72
2022/05/03 08:55:25;;;;;;;27.00;16.27;;;16.00;99.90;;;;;;5052592;28;20025;-71
2022/05/03 08:57:51;;;;;;;22.70;16.02;;;16.00;99.90;;;;;;5053185;28;20044;-71
2022/05/03 09:00:18;;;;;;;21.10;14.88;;;16.00;99.90;;;;;;5053516;28;20033;-73
2022/05/03 09:02:46;;;;;;;23.50;15.73;;;16.20;99.90;;;;;;5053759;28;20092;-70
2022/05/03 09:05:12;;;;;;;22.48;14.45;;;16.40;99.90;;;;;;5053248;28;20033;-72
2022/05/03 09:07:40;;;;;;;21.58;15.52;;;16.60;99.90;;;;;;5053500;28;20079;-71
2022/05/03 09:10:25;;;;;;;21.95;16.55;;;16.70;99.90;;;;;;5052425;28;20071;-73
2022/05/03 09:12:51;;;;;;;20.48;14.23;;;17.00;99.90;;;;;;5053365;28;20017;-69
2022/05/03 09:15:33;;;;;;;22.30;14.93;;;17.10;99.90;;;;;;5053038;28;20147;-72
2022/05/03 09:18:00;;;;;;;20.95;13.13;;;17.10;99.90;;;;;;5053533;28;20025;-72
2022/05/03 09:26:14;;;;;;;21.08;14.55;;;17.60;99.90;;;;;;5053180;28;20496;-69
2022/05/03 09:28:58;;;;;;;20.80;13.98;;;17.90;99.90;;;;;;5052588;28;20025;-71
2022/05/03 09:31:37;;;;;;;19.73;14.27;;;17.90;99.90;;;;;;5053387;28;20029;-73
2022/05/03 09:34:25;;;;;;;27.15;14.27;;;18.10;99.90;;;;;;5053472;28;20462;-70
2022/05/03 09:37:09;;;;;;;19.27;14.55;;;18.20;99.90;;;;;;5053717;28;20103;-70
2022/05/03 09:39:47;;;;;;;18.15;12.90;;;18.40;99.90;;;;;;5052927;28;20023;-72
2022/05/03 09:42:18;;;;;;;19.45;13.55;;;18.60;99.90;;;;;;5053246;28;20048;-68
2022/05/03 09:44:50;;;;;;;22.90;14.73;;;19.00;99.90;;;;;;5036642;28;20489;-71
2022/05/03 09:47:16;;;;;;;20.35;15.02;;;19.20;99.90;;;;;;5039012;28;20029;-71
2022/05/03 09:49:43;;;;;;;19.65;14.13;;;19.50;99.90;;;;;;5056901;28;20377;-71
2022/05/03 09:52:31;;;;;;;18.95;13.35;;;19.70;99.90;;;;;;5055915;28;20036;-68
2022/05/03 09:55:03;;;;;;;19.02;12.55;;;19.80;99.90;;;;;;5056590;28;20067;-70
2022/05/03 09:57:34;;;;;;;18.17;12.82;;;20.00;99.90;;;;;;5056609;28;20057;-68
2022/05/03 10:00:01;;;;;;;17.67;13.25;;;20.10;99.90;;;;;;5057095;28;20021;-69
2022/05/03 10:02:28;;;;;;;17.77;12.40;;;20.10;99.90;;;;;;5056456;28;20032;-68
2022/05/03 10:04:56;;;;;;;20.83;13.73;;;20.40;99.90;;;;;;5056373;28;20405;-70
2022/05/03 10:07:23;;;;;;;17.88;12.95;;;20.60;99.90;;;;;;5056554;28;20049;-70
2022/05/03 10:09:49;;;;;;;19.20;12.48;;;21.10;99.90;;;;;;5056253;28;20478;-70
2022/05/03 10:12:16;;;;;;;15.15;10.82;;;21.70;99.90;;;;;;5055816;28;20017;-70
2022/05/03 10:14:43;;;;;;;15.48;10.57;;;22.20;97.60;;;;;;5056162;28;20032;-69
2022/05/03 10:23:32;;;;;;;14.60;9.90;;;24.00;94.50;;;;;;5000879;28;20434;-70
2022/05/03 10:26:10;;;;;;;9.93;8.00;;;24.70;93.10;;;;;;5056295;28;20033;-72
2022/05/03 10:29:03;;;;;;;13.07;9.15;;;25.10;90.90;;;;;;5037975;28;20029;-70
2022/05/03 10:31:29;;;;;;;12.25;8.93;;;26.00;88.50;;;;;;5056462;28;20016;-69
2022/05/03 10:33:55;;;;;;;11.73;9.13;;;26.20;86.60;;;;;;5055873;28;20385;-72
2022/05/03 10:36:30;;;;;;;12.43;9.00;;;26.70;84.70;;;;;;5055837;28;20490;-71
2022/05/03 10:39:05;;;;;;;11.98;9.75;;;27.70;81.00;;;;;;5055802;28;20527;-74
2022/05/03 10:41:31;;;;;;;13.95;9.43;;;28.50;79.80;;;;;;5056053;28;20028;-71
2022/05/03 10:43:57;;;;;;;10.90;7.75;;;29.10;75.80;;;;;;5055668;28;20033;-70
2022/05/03 10:46:23;;;;;;;10.50;8.32;;;29.60;72.70;;;;;;5055656;28;20033;-72
2022/05/03 10:49:13;;;;;;;9.85;7.20;;;29.80;71.30;;;;;;5055540;28;20040;-70
2022/05/03 10:51:39;;;;;;;10.38;6.55;;;29.40;67.30;;;;;;5055510;28;20423;-73
2022/05/03 10:54:07;;;;;;;11.75;7.97;;;29.20;67.50;;;;;;5055452;28;20025;-74
2022/05/03 10:56:33;;;;;;;9.82;6.70;;;29.20;66.60;;;;;;5055403;28;20028;-71
2022/05/03 10:59:14;;;;;;;9.32;6.13;;;28.90;65.00;;;;;;5037593;28;20025;-73
2022/05/03 11:01:57;;;;;;;8.70;6.63;;;29.10;63.30;;;;;;5055986;28;20432;-71
2022/05/03 11:04:24;;;;;;;8.45;5.78;;;29.20;63.90;;;;;;5055320;28;20519;-71
2022/05/03 11:06:50;;;;;;;8.75;5.50;;;29.60;63.50;;;;;;5055287;28;20520;-74
2022/05/03 11:09:26;;;;;;;9.10;6.50;;;29.30;63.30;;;;;;5055175;28;20029;-71
2022/05/03 11:11:53;;;;;;;7.65;6.15;;;29.30;63.60;;;;;;5055264;28;20028;-70
2022/05/03 11:14:19;;;;;;;7.55;5.75;;;29.40;61.10;;;;;;5055145;28;20025;-73
2022/05/03 11:17:11;;;;;;;7.80;5.80;;;29.50;61.00;;;;;;5055049;28;20018;-71
2022/05/03 11:19:49;;;;;;;8.85;5.70;;;29.60;61.10;;;;;;5055644;28;20021;-71
2022/05/03 11:22:29;;;;;;;7.00;5.13;;;29.30;59.60;;;;;;5054995;28;20022;-68
2022/05/03 11:24:59;;;;;;;8.77;4.93;;;29.40;60.40;;;;;;5054810;28;20045;-73
2022/05/03 11:27:26;;;;;;;8.15;5.30;;;29.60;59.60;;;;;;5054779;28;20469;-70
2022/05/03 11:30:00;;;;;;;6.80;5.25;;;30.00;60.10;;;;;;5055091;28;20481;-69
2022/05/03 11:32:28;;;;;;;8.63;5.45;;;29.00;59.40;;;;;;5054776;28;20092;-75
2022/05/03 11:35:05;;;;;;;8.20;5.22;;;28.80;61.00;;;;;;5054744;28;20036;-71
2022/05/03 11:37:32;;;;;;;8.77;5.80;;;28.50;61.60;;;;;;5054999;28;20112;-73
2022/05/03 11:40:03;;;;;;;8.18;5.88;;;28.00;62.00;;;;;;5054643;28;20066;-70
2022/05/03 11:42:44;;;;;;;8.88;5.28;;;28.00;61.10;;;;;;5054866;28;20096;-69
2022/05/03 11:45:12;;;;;;;9.43;5.63;;;27.80;62.00;;;;;;5054615;28;20397;-71
2022/05/03 11:47:41;;;;;;;6.65;4.20;;;27.50;62.10;;;;;;5054381;28;20025;-70
2022/05/03 11:50:08;;;;;;;5.75;3.60;;;27.40;59.20;;;;;;5054771;28;20560;-70
2022/05/03 11:58:04;;;;;;;6.25;4.43;;;26.30;61.70;;;;;;5054313;28;20128;-70
2022/05/03 12:00:31;;;;;;;6.10;3.78;;;26.70;61.20;;;;;;5054286;28;20529;-70
2022/05/03 12:03:00;;;;;;;7.03;3.97;;;26.40;61.90;;;;;;5054752;28;20366;-70
2022/05/03 12:05:26;;;;;;;5.50;3.50;;;26.40;60.90;;;;;;5054156;28;20028;-72
2022/05/03 12:07:56;;;;;;;6.50;4.10;;;26.70;60.70;;;;;;5053494;28;20029;-72
2022/05/03 12:10:29;;;;;;;7.57;5.00;;;26.50;58.20;;;;;;5054068;28;20439;-72
2022/05/03 12:13:12;;;;;;;7.18;4.47;;;26.90;59.10;;;;;;5054265;28;20024;-69
2022/05/03 12:15:39;;;;;;;5.95;4.32;;;27.00;60.80;;;;;;5054211;28;20095;-72
2022/05/03 12:18:15;;;;;;;5.22;3.92;;;26.80;60.60;;;;;;5053726;28;20104;-70
2022/05/03 12:20:54;;;;;;;5.85;3.80;;;26.30;60.60;;;;;;5054123;28;20029;-71
2022/05/03 12:23:35;;;;;;;6.18;4.05;;;26.30;58.70;;;;;;5053599;28;20027;-71
2022/05/03 12:26:13;;;;;;;7.82;4.70;;;26.10;59.10;;;;;;5054101;28;20423;-74
2022/05/03 12:28:42;;;;;;;6.20;4.32;;;26.20;59.70;;;;;;5053894;28;20449;-71
2022/05/03 12:31:09;;;;;;;8.87;5.00;;;25.80;61.80;;;;;;5053905;28;20021;-73
2022/05/03 12:33:41;;;;;;;5.63;3.40;;;25.70;60.30;;;;;;5053509;28;20385;-70
2022/05/03 12:36:08;;;;;;;6.60;3.65;;;25.80;62.00;;;;;;5053910;28;20017;-74
2022/05/03 12:38:49;;;;;;;5.53;3.50;;;25.40;60.00;;;;;;5053887;28;20032;-70
2022/05/03 12:41:28;;;;;;;4.35;2.95;;;25.40;59.30;;;;;;5053795;28;20025;-70
2022/05/03 12:44:00;;;;;;;;;;;25.50;59.30;;;;;;5054203;28;20029;-70
2022/05/03 12:46:28;;;;;;;4.53;3.40;;;25.80;59.40;;;;;;5053436;28;19905;-69
2022/05/03 12:48:54;;;;;;;5.90;3.55;;;25.40;59.70;;;;;;5053383;28;20163;-73
2022/05/03 12:51:19;;;;;;;5.53;4.10;;;24.90;61.60;;;;;;5053665;28;20504;-71
2022/05/03 12:53:47;;;;;;;5.95;3.63;;;24.10;61.30;;;;;;5053793;28;20028;-69
2022/05/03 12:58:58;;;;;;;6.65;4.35;;;23.30;62.70;;;;;;5053799;28;20051;-70
2022/05/03 13:01:24;;;;;;;7.53;4.72;;;23.00;64.00;;;;;;5053892;28;20020;-69
2022/05/03 13:03:50;;;;;;;8.30;4.65;;;22.80;65.40;;;;;;5053201;28;20028;-73
2022/05/03 13:06:17;;;;;;;7.70;4.47;;;23.00;65.30;;;;;;5053236;28;20477;-72
2022/05/03 13:08:43;;;;;;;7.10;4.55;;;23.20;64.60;;;;;;5053084;28;20021;-70
2022/05/03 13:11:10;;;;;;;7.47;3.92;;;23.10;65.10;;;;;;5053325;28;20032;-73
2022/05/03 13:13:36;;;;;;;5.82;3.92;;;22.60;65.70;;;;;;5053086;28;20045;-73
2022/05/03 13:16:03;;;;;;;7.70;4.50;;;22.10;65.50;;;;;;5053102;28;20032;-69
2022/05/03 13:18:28;;;;;;;7.03;4.35;;;21.80;67.10;;;;;;5053621;28;20021;-69
2022/05/03 13:20:54;;;;;;;7.05;4.30;;;21.60;69.10;;;;;;5057302;28;20473;-68
2022/05/03 13:23:20;;;;;;;6.97;4.68;;;21.30;68.80;;;;;;5057008;28;20103;-69
2022/05/03 13:25:46;;;;;;;7.38;4.90;;;20.90;69.50;;;;;;5057431;28;20032;-72
2022/05/03 13:28:12;;;;;;;7.20;4.50;;;20.60;70.20;;;;;;5057089;28;20028;-71
2022/05/03 13:30:39;;;;;;;7.43;4.68;;;20.50;71.00;;;;;;5057062;28;20040;-69